Talmage, KS

10:47 AM CDT on May 25, 2015 (GMT -0500)
Solomon Fire Department | | Change Station
CLOSE
Current Station
Personal Weather Station
Location: Solomon, KS
Elevation: 1224 ft
Nearby Weather Stations

Elev 1224 ft 38.93 °N, 97.37 °W | Updated 1 minute ago

Overcast
Overcast
66.9 °F
Feels Like 66.9 °F
N
4.0
Wind Variable Wind from ESE
Gusts 6.0 mph

Today
High -- | Low -- °F
--% Chance of Precip.
Yesterday
High -- | Low -- °F
Precip. -- in
6:09 AM 8:43 PM
Waxing Crescent, 49% visible
Pressure 29.83 in
Visibility 10.0 miles
Clouds Few 1800 ft
Overcast 4600 ft
Dew Point 62 °F
Humidity 85%
Rainfall 0.40 in
Snow Depth Not available.
UV 2 out of 12
Pollen 7.60 out of 12
Air Quality Not available.
Flu Activity No Activity
SPECI KSLN 251509Z 15010KT 10SM FEW018 OVC046 19/16 A2983 RMK AO2 T01890161

More Conditions Fewer Conditions

Pressure 29.83 in
Visibility 10.0 miles
Clouds Few 1800 ft
Overcast 4600 ft
Dew Point 62 °F
Humidity 85%
Rainfall 0.40 in
Snow Depth Not available.
UV 2 out of 12
Pollen 7.60 out of 12
Air Quality Not available.
Flu Activity No Activity
SPECI KSLN 251509Z 15010KT 10SM FEW018 OVC046 19/16 A2983 RMK AO2 T01890161

More Conditions Fewer Conditions

10-Day Weather Forecast

Almanac

Astronomy

May. 25, 2015 Rise Set
Actual Time
Civil Twilight
Nautical Twilight
Astronomical Twilight
Moon
Length of Visible Light
Length of Day
Tomorrow will be .
, % of the Moon is Illuminated

Today's Extremes

State Highs State Lows

Community

WunderPhotos

Upload Photos

1,824,028 photos uploaded!

WunderBlogs® & News

Nearby

Air Quality

  Air Quality AQ Index Pollutant
Not available.

Snow Depth

Station Depth Elevation

Earthquake Activity

City Distance Mag. Time & Date
Minimum magnitude displayed is 2.5.

Coastal Water Temperatures

Place Temperature

Stations

Nearby Weather Stations

Station Location Temp. Windchill Dew Point Humidity Wind Precip. Elev Updated Type